Pearl Ace — HOOT — position and weather

sailwx.info

Track history (hours):
 
Tides and Currents Weather Stations Pressure Air Temp Water Temp Dewpoint Dewpoint Depression Visibility Wind Speed Wind Dir Waves Ship Positions

Pearl Ace

Last reported at 2018-Jun-19 22:58 UTC. Time now 2018-Jun-19 23:23 UTC.
Position N 51°19' E 003°13'.

Length 188 m; draft 8.2 m.

Type: Cargo ship. MMSI: 355754000.

Date/timePositionNaut miles runAvg speedWind from/ knotsBaromVisibWave heightAir tempDewpointWater temp
2018-Jun-19 22:58N 51°19' E 003°13'0 0.0
2018-Jun-19 22:28N 51°19' E 003°13'0 0.0
2018-Jun-19 21:55N 51°19' E 003°13'0 0.0
2018-Jun-19 21:25N 51°19' E 003°13'0 0.0
2018-Jun-19 20:55N 51°19' E 003°13'0 0.0
2018-Jun-19 20:25N 51°19' E 003°13'0 0.0
2018-Jun-19 19:58N 51°19' E 003°13'0 0.0
2018-Jun-19 19:16N 51°19' E 003°13'0 0.0
2018-Jun-19 18:55N 51°19' E 003°13'0 0.0
2018-Jun-19 18:30N 51°19' E 003°13'2 3.0
2018-Jun-19 17:59N 51°18' E 003°14'0 0.0
2018-Jun-19 17:26N 51°18' E 003°14'0 0.0
2018-Jun-19 16:59N 51°18' E 003°14'0 0.0
2018-Jun-19 16:23N 51°18' E 003°14'0 0.0
2018-Jun-19 15:53N 51°18' E 003°14'0 0.0
2018-Jun-19 15:26N 51°18' E 003°14'0 0.0
2018-Jun-19 14:59N 51°18' E 003°14'0 0.0
2018-Jun-19 14:26N 51°18' E 003°14'0 0.0
2018-Jun-19 13:56N 51°18' E 003°14'0 0.0
2018-Jun-19 13:26N 51°18' E 003°14'0 0.0
2018-Jun-19 12:56N 51°18' E 003°14'0 0.0
2018-Jun-19 12:29N 51°18' E 003°14'0 0.0
2018-Jun-19 11:59N 51°18' E 003°14'0 0.0
2018-Jun-19 11:23N 51°18' E 003°14'0 0.0
2018-Jun-19 10:50N 51°18' E 003°14'0 0.0
2018-Jun-19 10:29N 51°18' E 003°14'0 0.0
2018-Jun-19 09:59N 51°18' E 003°14'0 0.0
2018-Jun-19 09:27N 51°18' E 003°14'0 0.0
2018-Jun-19 08:57N 51°18' E 003°14'0 0.0
2018-Jun-19 08:30N 51°18' E 003°14'0 0.0
2018-Jun-19 08:00N 51°18' E 003°14'0 0.0
2018-Jun-19 07:30N 51°18' E 003°14'0 0.0
2018-Jun-19 07:00N 51°18' E 003°14'0 0.0
2018-Jun-19 06:30N 51°18' E 003°14'0 0.2
2018-Jun-19 06:00N 51°18' E 003°14'2 3.6
2018-Jun-19 05:26N 51°20' E 003°13'0 0.0
2018-Jun-19 04:59N 51°20' E 003°13'0 0.0
2018-Jun-19 04:29N 51°20' E 003°13'1 1.5
2018-Jun-19 04:00N 51°21' E 003°13'5 9.4
2018-Jun-19 03:30N 51°24' E 003°07'815.8
2018-Jun-19 03:00N 51°22' E 002°55'713.3
2018-Jun-19 02:27N 51°22' E 002°43'511.2
2018-Jun-19 02:00N 51°22' E 002°35'713.0
2018-Jun-19 01:29N 51°20' E 002°24'714.7
2018-Jun-19 01:00N 51°17' E 002°15'815.6
2018-Jun-19 00:30N 51°13' E 002°04'815.3
2018-Jun-19 00:00N 51°09' E 001°53'714.6
2018-Jun-18 23:30N 51°04' E 001°44'714.7
2018-Jun-18 23:00N 50°59' E 001°36'714.7
2018-Jun-18 22:30N 50°53' E 001°29'815.1
2018-Jun-18 22:00N 50°46' E 001°25'915.0
2018-Jun-18 21:24N 50°39' E 001°17'615.9
2018-Jun-18 21:00N 50°35' E 001°10'4215.9
2018-Jun-18 18:23N 50°05' E 000°23'615.5
2018-Jun-18 18:00N 50°01' E 000°17'815.6
2018-Jun-18 17:30N 49°55' E 000°10'815.9
2018-Jun-18 17:00N 49°48' E 000°03'816.4
2018-Jun-18 16:30N 49°41' W 000°02'714.8
2018-Jun-18 16:00N 49°33' W 000°01'510.0
2018-Jun-18 15:30N 49°29' E 000°04'4 7.8
2018-Jun-18 15:00N 49°28' E 000°10'0 0.6
2018-Jun-18 14:28N 49°29' E 000°10'0 0.9
2018-Jun-18 14:00N 49°28' E 000°11'0 0.6
2018-Jun-18 13:28N 49°28' E 000°11'0 0.0
2018-Jun-18 12:58N 49°28' E 000°11'0 0.0
2018-Jun-18 12:28N 49°28' E 000°11'0 0.0
2018-Jun-18 11:58N 49°28' E 000°11'0 0.0
2018-Jun-18 11:28N 49°28' E 000°11'0 0.0
2018-Jun-18 10:58N 49°28' E 000°11'0 0.0
2018-Jun-18 10:28N 49°28' E 000°11'0 0.0
2018-Jun-18 09:58N 49°28' E 000°11'0 0.0
2018-Jun-18 09:28N 49°28' E 000°11'0 0.0
2018-Jun-18 08:58N 49°28' E 000°11'0 0.0
2018-Jun-18 08:28N 49°28' E 000°11'0 0.0
2018-Jun-18 07:58N 49°28' E 000°11'0 0.0
2018-Jun-18 07:28N 49°28' E 000°11'0 0.0
2018-Jun-18 06:58N 49°28' E 000°11'0 0.0
2018-Jun-18 06:28N 49°28' E 000°11'0 0.0
2018-Jun-18 05:58N 49°28' E 000°11'0 0.0
2018-Jun-18 05:28N 49°28' E 000°11'0 0.0
2018-Jun-18 04:58N 49°28' E 000°11'0 0.0
2018-Jun-18 04:28N 49°28' E 000°11'0 0.0
2018-Jun-18 03:58N 49°28' E 000°11'0 0.0
2018-Jun-18 03:28N 49°28' E 000°11'0 0.0
2018-Jun-18 02:58N 49°28' E 000°11'0 0.0
2018-Jun-18 02:28N 49°28' E 000°11'0 0.0
2018-Jun-18 01:58N 49°28' E 000°11'0 0.0
2018-Jun-18 01:30N 49°28' E 000°11'1 1.3
2018-Jun-18 01:00N 49°29' E 000°10'0 0.0
2018-Jun-18 00:30N 49°29' E 000°10'2 3.9
2018-Jun-18 00:00N 49°28' E 000°07'5 9.3
2018-Jun-17 23:30N 49°30' E 000°01'5 9.5
2018-Jun-17 23:00N 49°31' W 000°06'3 6.6
2018-Jun-17 22:30N 49°33' W 000°11'510.0
2018-Jun-17 22:01N 49°34' W 000°18'510.4
2018-Jun-17 21:30N 49°36' W 000°26'611.2
2018-Jun-17 21:01N 49°38' W 000°34'510.6
2018-Jun-17 20:31N 49°41' W 000°41'5 9.7
2018-Jun-17 20:00N 49°43' W 000°48'611.7
2018-Jun-17 19:30N 49°46' W 000°56'611.7
2018-Jun-17 19:00N 49°48' W 001°04'5310.6
2018-Jun-17 14:01N 49°53' W 002°25'211.8
2018-Jun-17 13:49N 49°52' W 002°29'712.0
2018-Jun-17 13:13N 49°50' W 002°40'412.3
2018-Jun-17 12:53N 49°49' W 002°46'1312.7
2018-Jun-17 11:50N 49°44' W 003°05'513.1
2018-Jun-17 11:27N 49°41' W 003°11'712.5
2018-Jun-17 10:53N 49°37' W 003°21'2513.5
2018-Jun-17 09:02N 49°25' W 003°54'113.7
2018-Jun-17 08:57N 49°25' W 003°56'813.8
2018-Jun-17 08:22N 49°21' W 004°07'514.1
2018-Jun-17 07:59N 49°19' W 004°14'713.9
2018-Jun-17 07:30N 49°15' W 004°23'714.0
2018-Jun-17 06:59N 49°12' W 004°33'813.9
2018-Jun-17 06:26N 49°08' W 004°43'915.2
2018-Jun-17 05:52N 49°04' W 004°54'617.2
2018-Jun-17 05:30N 49°00' W 005°03'816.8
2018-Jun-17 05:00N 48°56' W 005°13'816.5
2018-Jun-17 04:30N 48°52' W 005°24'816.2
2018-Jun-17 04:00N 48°47' W 005°35'3115.6
2018-Jun-17 02:00N 48°20' W 005°58'1415.0
2018-Jun-17 01:05N 48°08' W 006°07'114.8
2018-Jun-17 01:00N 48°07' W 006°08'1114.4
2018-Jun-17 00:13N 47°57' W 006°16'1314.1
2018-Jun-16 23:16N 47°45' W 006°25'614.0
2018-Jun-16 22:48N 47°40' W 006°30'35115.0
2018-Jun-15 23:23N 42°18' W 009°49'1714.6
2018-Jun-15 22:14N 42°01' W 009°50'714.5
2018-Jun-15 21:43N 41°54' W 009°50'1414.3
2018-Jun-15 20:45N 41°40' W 009°49'314.4
2018-Jun-15 20:30N 41°36' W 009°49'1814.5
2018-Jun-15 19:16N 41°19' W 009°51'614.3
2018-Jun-15 18:52N 41°13' W 009°52'714.1
2018-Jun-15 18:24N 41°06' W 009°53'814.3
2018-Jun-15 17:49N 40°58' W 009°53'514.4
2018-Jun-15 17:29N 40°53' W 009°54'713.9
2018-Jun-15 17:00N 40°46' W 009°55'710.1
2018-Jun-15 16:16N 40°39' W 009°57'1 2.2
2018-Jun-15 15:48N 40°40' W 009°57'1 2.5
2018-Jun-15 15:28N 40°41' W 009°57'1 2.4
2018-Jun-15 15:00N 40°42' W 009°57'3 2.2
2018-Jun-15 13:36N 40°45' W 009°58'0 2.1
2018-Jun-15 13:30N 40°46' W 009°58'3 3.8
2018-Jun-15 12:38N 40°42' W 009°58'914.0
2018-Jun-15 11:58N 40°33' W 009°57'1214.2
2018-Jun-15 11:08N 40°21' W 009°56'214.0
2018-Jun-15 10:57N 40°19' W 009°56'614.2
2018-Jun-15 10:30N 40°12' W 009°54'714.5
2018-Jun-15 10:00N 40°05' W 009°53'714.2
2018-Jun-15 09:30N 39°58' W 009°52'714.0
2018-Jun-15 09:00N 39°51' W 009°52'714.1
2018-Jun-15 08:30N 39°44' W 009°51'814.3
2018-Jun-15 07:58N 39°36' W 009°51'714.5
2018-Jun-15 07:30N 39°30' W 009°51'714.7
2018-Jun-15 07:00N 39°22' W 009°51'714.3
2018-Jun-15 06:30N 39°15' W 009°51'714.5
2018-Jun-15 06:00N 39°08' W 009°51'714.4
2018-Jun-15 05:30N 39°01' W 009°51'714.5
2018-Jun-15 05:00N 38°54' W 009°50'714.7
2018-Jun-15 04:30N 38°46' W 009°51'714.6
2018-Jun-15 04:00N 38°39' W 009°50'714.7
2018-Jun-15 03:30N 38°32' W 009°48'714.4
2018-Jun-15 03:00N 38°25' W 009°46'714.4
2018-Jun-15 02:30N 38°18' W 009°44'714.5
2018-Jun-15 02:00N 38°11' W 009°42'714.4
2018-Jun-15 01:30N 38°04' W 009°40'714.4
2018-Jun-15 01:00N 37°57' W 009°38'714.6
2018-Jun-15 00:30N 37°49' W 009°36'714.6
2018-Jun-15 00:00N 37°42' W 009°34'714.8
2018-Jun-14 23:30N 37°35' W 009°31'714.6
2018-Jun-14 23:00N 37°28' W 009°29'714.3
2018-Jun-14 22:30N 37°21' W 009°27'714.2
2018-Jun-14 22:00N 37°14' W 009°25'714.0
2018-Jun-14 21:30N 37°07' W 009°23'713.8
2018-Jun-14 21:00N 37°01' W 009°21'713.4
2018-Jun-14 20:30N 36°54' W 009°19'714.2
2018-Jun-14 20:01N 36°48' W 009°15'714.8
2018-Jun-14 19:30N 36°44' W 009°07'714.6
2018-Jun-14 19:01N 36°41' W 008°59'714.5
2018-Jun-14 18:31N 36°39' W 008°50'714.7
2018-Jun-14 18:00N 36°36' W 008°42'814.7
2018-Jun-14 17:28N 36°33' W 008°33'714.6
2018-Jun-14 16:58N 36°31' W 008°24'715.0
2018-Jun-14 16:28N 36°30' W 008°15'715.1
2018-Jun-14 16:00N 36°28' W 008°06'915.2
2018-Jun-14 15:23N 36°25' W 007°55'715.3
2018-Jun-14 14:54N 36°23' W 007°47'715.3
2018-Jun-14 14:26N 36°20' W 007°38'10314.6
2018-Jun-14 07:24N 35°58' W 005°34'5 3.6
2018-Jun-14 05:59N 35°53' W 005°30'0 0.0
2018-Jun-13 05:44N 35°53' W 005°30'0 1.9
2018-Jun-13 05:30N 35°54' W 005°30'2 4.4
2018-Jun-13 05:00N 35°55' W 005°32'4 8.6
2018-Jun-13 04:30N 35°59' W 005°32'611.9
2018-Jun-13 04:00N 36°01' W 005°25'612.1
2018-Jun-13 03:30N 36°03' W 005°18'611.8
2018-Jun-13 03:00N 36°04' W 005°10'612.7
2018-Jun-13 02:30N 36°04' W 005°03'  
Track history (hours):
 
Tides and Currents Weather Stations Pressure Air Temp Water Temp Dewpoint Dewpoint Depression Visibility Wind Speed Wind Dir Waves Ship Positions

Pearl Ace

Last reported at 2018-Jun-19 22:58 UTC. Time now 2018-Jun-19 23:23 UTC.
Position N 51°19' E 003°13'.

Length 188 m; draft 8.2 m.

Type: Cargo ship. MMSI: 355754000.

Date/timePositionNaut miles runAvg speedWind from/ knotsBaromVisibWave heightAir tempDewpointWater temp
2018-Jun-19 22:58N 51°19' E 003°13'0 0.0
2018-Jun-19 22:28N 51°19' E 003°13'0 0.0
2018-Jun-19 21:55N 51°19' E 003°13'0 0.0
2018-Jun-19 21:25N 51°19' E 003°13'0 0.0
2018-Jun-19 20:55N 51°19' E 003°13'0 0.0
2018-Jun-19 20:25N 51°19' E 003°13'0 0.0
2018-Jun-19 19:58N 51°19' E 003°13'0 0.0
2018-Jun-19 19:16N 51°19' E 003°13'0 0.0
2018-Jun-19 18:55N 51°19' E 003°13'0 0.0
2018-Jun-19 18:30N 51°19' E 003°13'2 3.0
2018-Jun-19 17:59N 51°18' E 003°14'0 0.0
2018-Jun-19 17:26N 51°18' E 003°14'0 0.0
2018-Jun-19 16:59N 51°18' E 003°14'0 0.0
2018-Jun-19 16:23N 51°18' E 003°14'0 0.0
2018-Jun-19 15:53N 51°18' E 003°14'0 0.0
2018-Jun-19 15:26N 51°18' E 003°14'0 0.0
2018-Jun-19 14:59N 51°18' E 003°14'0 0.0
2018-Jun-19 14:26N 51°18' E 003°14'0 0.0
2018-Jun-19 13:56N 51°18' E 003°14'0 0.0
2018-Jun-19 13:26N 51°18' E 003°14'0 0.0
2018-Jun-19 12:56N 51°18' E 003°14'0 0.0
2018-Jun-19 12:29N 51°18' E 003°14'0 0.0
2018-Jun-19 11:59N 51°18' E 003°14'0 0.0
2018-Jun-19 11:23N 51°18' E 003°14'0 0.0
2018-Jun-19 10:50N 51°18' E 003°14'0 0.0
2018-Jun-19 10:29N 51°18' E 003°14'0 0.0
2018-Jun-19 09:59N 51°18' E 003°14'0 0.0
2018-Jun-19 09:27N 51°18' E 003°14'0 0.0
2018-Jun-19 08:57N 51°18' E 003°14'0 0.0
2018-Jun-19 08:30N 51°18' E 003°14'0 0.0
2018-Jun-19 08:00N 51°18' E 003°14'0 0.0
2018-Jun-19 07:30N 51°18' E 003°14'0 0.0
2018-Jun-19 07:00N 51°18' E 003°14'0 0.0
2018-Jun-19 06:30N 51°18' E 003°14'0 0.2
2018-Jun-19 06:00N 51°18' E 003°14'2 3.6
2018-Jun-19 05:26N 51°20' E 003°13'0 0.0
2018-Jun-19 04:59N 51°20' E 003°13'0 0.0
2018-Jun-19 04:29N 51°20' E 003°13'1 1.5
2018-Jun-19 04:00N 51°21' E 003°13'5 9.4
2018-Jun-19 03:30N 51°24' E 003°07'815.8
2018-Jun-19 03:00N 51°22' E 002°55'713.3
2018-Jun-19 02:27N 51°22' E 002°43'511.2
2018-Jun-19 02:00N 51°22' E 002°35'713.0
2018-Jun-19 01:29N 51°20' E 002°24'714.7
2018-Jun-19 01:00N 51°17' E 002°15'815.6
2018-Jun-19 00:30N 51°13' E 002°04'815.3
2018-Jun-19 00:00N 51°09' E 001°53'714.6
2018-Jun-18 23:30N 51°04' E 001°44'714.7
2018-Jun-18 23:00N 50°59' E 001°36'714.7
2018-Jun-18 22:30N 50°53' E 001°29'815.1
2018-Jun-18 22:00N 50°46' E 001°25'915.0
2018-Jun-18 21:24N 50°39' E 001°17'615.9
2018-Jun-18 21:00N 50°35' E 001°10'4215.9
2018-Jun-18 18:23N 50°05' E 000°23'615.5
2018-Jun-18 18:00N 50°01' E 000°17'815.6
2018-Jun-18 17:30N 49°55' E 000°10'815.9
2018-Jun-18 17:00N 49°48' E 000°03'816.4
2018-Jun-18 16:30N 49°41' W 000°02'714.8
2018-Jun-18 16:00N 49°33' W 000°01'510.0
2018-Jun-18 15:30N 49°29' E 000°04'4 7.8
2018-Jun-18 15:00N 49°28' E 000°10'0 0.6
2018-Jun-18 14:28N 49°29' E 000°10'0 0.9
2018-Jun-18 14:00N 49°28' E 000°11'0 0.6
2018-Jun-18 13:28N 49°28' E 000°11'0 0.0
2018-Jun-18 12:58N 49°28' E 000°11'0 0.0
2018-Jun-18 12:28N 49°28' E 000°11'0 0.0
2018-Jun-18 11:58N 49°28' E 000°11'0 0.0
2018-Jun-18 11:28N 49°28' E 000°11'0 0.0
2018-Jun-18 10:58N 49°28' E 000°11'0 0.0
2018-Jun-18 10:28N 49°28' E 000°11'0 0.0
2018-Jun-18 09:58N 49°28' E 000°11'0 0.0
2018-Jun-18 09:28N 49°28' E 000°11'0 0.0
2018-Jun-18 08:58N 49°28' E 000°11'0 0.0
2018-Jun-18 08:28N 49°28' E 000°11'0 0.0
2018-Jun-18 07:58N 49°28' E 000°11'0 0.0
2018-Jun-18 07:28N 49°28' E 000°11'0 0.0
2018-Jun-18 06:58N 49°28' E 000°11'0 0.0
2018-Jun-18 06:28N 49°28' E 000°11'0 0.0
2018-Jun-18 05:58N 49°28' E 000°11'0 0.0
2018-Jun-18 05:28N 49°28' E 000°11'0 0.0
2018-Jun-18 04:58N 49°28' E 000°11'0 0.0
2018-Jun-18 04:28N 49°28' E 000°11'0 0.0
2018-Jun-18 03:58N 49°28' E 000°11'0 0.0
2018-Jun-18 03:28N 49°28' E 000°11'0 0.0
2018-Jun-18 02:58N 49°28' E 000°11'0 0.0
2018-Jun-18 02:28N 49°28' E 000°11'0 0.0
2018-Jun-18 01:58N 49°28' E 000°11'0 0.0
2018-Jun-18 01:30N 49°28' E 000°11'1 1.3
2018-Jun-18 01:00N 49°29' E 000°10'0 0.0
2018-Jun-18 00:30N 49°29' E 000°10'2 3.9
2018-Jun-18 00:00N 49°28' E 000°07'5 9.3
2018-Jun-17 23:30N 49°30' E 000°01'5 9.5
2018-Jun-17 23:00N 49°31' W 000°06'3 6.6
2018-Jun-17 22:30N 49°33' W 000°11'510.0
2018-Jun-17 22:01N 49°34' W 000°18'510.4
2018-Jun-17 21:30N 49°36' W 000°26'611.2
2018-Jun-17 21:01N 49°38' W 000°34'510.6
2018-Jun-17 20:31N 49°41' W 000°41'5 9.7
2018-Jun-17 20:00N 49°43' W 000°48'611.7
2018-Jun-17 19:30N 49°46' W 000°56'611.7
2018-Jun-17 19:00N 49°48' W 001°04'5310.6
2018-Jun-17 14:01N 49°53' W 002°25'211.8
2018-Jun-17 13:49N 49°52' W 002°29'712.0
2018-Jun-17 13:13N 49°50' W 002°40'412.3
2018-Jun-17 12:53N 49°49' W 002°46'1312.7
2018-Jun-17 11:50N 49°44' W 003°05'513.1
2018-Jun-17 11:27N 49°41' W 003°11'712.5
2018-Jun-17 10:53N 49°37' W 003°21'2513.5
2018-Jun-17 09:02N 49°25' W 003°54'113.7
2018-Jun-17 08:57N 49°25' W 003°56'813.8
2018-Jun-17 08:22N 49°21' W 004°07'514.1
2018-Jun-17 07:59N 49°19' W 004°14'713.9
2018-Jun-17 07:30N 49°15' W 004°23'714.0
2018-Jun-17 06:59N 49°12' W 004°33'813.9
2018-Jun-17 06:26N 49°08' W 004°43'915.2
2018-Jun-17 05:52N 49°04' W 004°54'617.2
2018-Jun-17 05:30N 49°00' W 005°03'816.8
2018-Jun-17 05:00N 48°56' W 005°13'816.5
2018-Jun-17 04:30N 48°52' W 005°24'816.2
2018-Jun-17 04:00N 48°47' W 005°35'3115.6
2018-Jun-17 02:00N 48°20' W 005°58'1415.0
2018-Jun-17 01:05N 48°08' W 006°07'114.8
2018-Jun-17 01:00N 48°07' W 006°08'1114.4
2018-Jun-17 00:13N 47°57' W 006°16'1314.1
2018-Jun-16 23:16N 47°45' W 006°25'614.0
2018-Jun-16 22:48N 47°40' W 006°30'35115.0
2018-Jun-15 23:23N 42°18' W 009°49'1714.6
2018-Jun-15 22:14N 42°01' W 009°50'714.5
2018-Jun-15 21:43N 41°54' W 009°50'1414.3
2018-Jun-15 20:45N 41°40' W 009°49'314.4
2018-Jun-15 20:30N 41°36' W 009°49'1814.5
2018-Jun-15 19:16N 41°19' W 009°51'614.3
2018-Jun-15 18:52N 41°13' W 009°52'714.1
2018-Jun-15 18:24N 41°06' W 009°53'814.3
2018-Jun-15 17:49N 40°58' W 009°53'514.4
2018-Jun-15 17:29N 40°53' W 009°54'713.9
2018-Jun-15 17:00N 40°46' W 009°55'710.1
2018-Jun-15 16:16N 40°39' W 009°57'1 2.2
2018-Jun-15 15:48N 40°40' W 009°57'1 2.5
2018-Jun-15 15:28N 40°41' W 009°57'1 2.4
2018-Jun-15 15:00N 40°42' W 009°57'3 2.2
2018-Jun-15 13:36N 40°45' W 009°58'0 2.1
2018-Jun-15 13:30N 40°46' W 009°58'3 3.8
2018-Jun-15 12:38N 40°42' W 009°58'914.0
2018-Jun-15 11:58N 40°33' W 009°57'1214.2
2018-Jun-15 11:08N 40°21' W 009°56'214.0
2018-Jun-15 10:57N 40°19' W 009°56'614.2
2018-Jun-15 10:30N 40°12' W 009°54'714.5
2018-Jun-15 10:00N 40°05' W 009°53'714.2
2018-Jun-15 09:30N 39°58' W 009°52'714.0
2018-Jun-15 09:00N 39°51' W 009°52'714.1
2018-Jun-15 08:30N 39°44' W 009°51'814.3
2018-Jun-15 07:58N 39°36' W 009°51'714.5
2018-Jun-15 07:30N 39°30' W 009°51'714.7
2018-Jun-15 07:00N 39°22' W 009°51'714.3
2018-Jun-15 06:30N 39°15' W 009°51'714.5
2018-Jun-15 06:00N 39°08' W 009°51'714.4
2018-Jun-15 05:30N 39°01' W 009°51'714.5
2018-Jun-15 05:00N 38°54' W 009°50'714.7
2018-Jun-15 04:30N 38°46' W 009°51'714.6
2018-Jun-15 04:00N 38°39' W 009°50'714.7
2018-Jun-15 03:30N 38°32' W 009°48'714.4
2018-Jun-15 03:00N 38°25' W 009°46'714.4
2018-Jun-15 02:30N 38°18' W 009°44'714.5
2018-Jun-15 02:00N 38°11' W 009°42'714.4
2018-Jun-15 01:30N 38°04' W 009°40'714.4
2018-Jun-15 01:00N 37°57' W 009°38'714.6
2018-Jun-15 00:30N 37°49' W 009°36'714.6
2018-Jun-15 00:00N 37°42' W 009°34'714.8
2018-Jun-14 23:30N 37°35' W 009°31'714.6
2018-Jun-14 23:00N 37°28' W 009°29'714.3
2018-Jun-14 22:30N 37°21' W 009°27'714.2
2018-Jun-14 22:00N 37°14' W 009°25'714.0
2018-Jun-14 21:30N 37°07' W 009°23'713.8
2018-Jun-14 21:00N 37°01' W 009°21'713.4
2018-Jun-14 20:30N 36°54' W 009°19'714.2
2018-Jun-14 20:01N 36°48' W 009°15'714.8
2018-Jun-14 19:30N 36°44' W 009°07'714.6
2018-Jun-14 19:01N 36°41' W 008°59'714.5
2018-Jun-14 18:31N 36°39' W 008°50'714.7
2018-Jun-14 18:00N 36°36' W 008°42'814.7
2018-Jun-14 17:28N 36°33' W 008°33'714.6
2018-Jun-14 16:58N 36°31' W 008°24'715.0
2018-Jun-14 16:28N 36°30' W 008°15'715.1
2018-Jun-14 16:00N 36°28' W 008°06'915.2
2018-Jun-14 15:23N 36°25' W 007°55'715.3
2018-Jun-14 14:54N 36°23' W 007°47'715.3
2018-Jun-14 14:26N 36°20' W 007°38'10314.6
2018-Jun-14 07:24N 35°58' W 005°34'5 3.6
2018-Jun-14 05:59N 35°53' W 005°30'0 0.0
2018-Jun-13 05:44N 35°53' W 005°30'0 1.9
2018-Jun-13 05:30N 35°54' W 005°30'2 4.4
2018-Jun-13 05:00N 35°55' W 005°32'4 8.6
2018-Jun-13 04:30N 35°59' W 005°32'611.9
2018-Jun-13 04:00N 36°01' W 005°25'612.1
2018-Jun-13 03:30N 36°03' W 005°18'611.8
2018-Jun-13 03:00N 36°04' W 005°10'612.7
2018-Jun-13 02:30N 36°04' W 005°03'  

Dump ship's entire track history